SAS62N ENTC-ENEV
Flight info
| Callsign | SAS62N |
|---|---|
| Flight time | 0h 24m |
| Altitude | 16000 |
| Route | ROSKO DCT ELDUR |
| Aircraft | A319/M-SDE3FGHIRWY/LB1 |
Departure
| Time | 2026-05-04 17:04 |
|---|---|
| Airport | Tromsø Airport (ENTC) |
Arrival
| Time | 2026-05-04 17:29 |
|---|---|
| Airport | Harstad/Narvik Airport (ENEV) |
| Time | Latitude | Longitude | Altitude | Speed | Heading |
|---|---|---|---|---|---|
| 2026-05-04 16:28 | 69.67931 | 18.90884 | 35 ft | 0 kts | 283° |
| 2026-05-04 16:52 | 69.67931 | 18.90886 | 34 ft | 1 kts | 283° |
| 2026-05-04 16:53 | 69.67919 | 18.91030 | 34 ft | 4 kts | 283° |
| 2026-05-04 16:53 | 69.67921 | 18.91225 | 33 ft | 4 kts | 206° |
| 2026-05-04 16:54 | 69.67928 | 18.91233 | 31 ft | 0 kts | 193° |
| 2026-05-04 16:58 | 69.67897 | 18.91213 | 33 ft | 6 kts | 192° |
| 2026-05-04 16:58 | 69.67848 | 18.91179 | 35 ft | 8 kts | 196° |
| 2026-05-04 16:59 | 69.67750 | 18.91113 | 34 ft | 7 kts | 191° |
| 2026-05-04 17:00 | 69.67635 | 18.91122 | 35 ft | 0 kts | 113° |
| 2026-05-04 17:02 | 69.67633 | 18.91147 | 35 ft | 4 kts | 104° |
| 2026-05-04 17:03 | 69.67624 | 18.91262 | 36 ft | 7 kts | 102° |
| 2026-05-04 17:03 | 69.67618 | 18.91386 | 40 ft | 6 kts | 86° |
| 2026-05-04 17:03 | 69.67955 | 18.91630 | 39 ft | 80 kts | 13° |
| 2026-05-04 17:04 | 69.69747 | 18.92848 | 492 ft | 153 kts | 14° |
| 2026-05-04 17:04 | 69.71840 | 18.94240 | 1868 ft | 159 kts | 14° |
| 2026-05-04 17:05 | 69.74209 | 18.95591 | 2857 ft | 184 kts | 14° |
| 2026-05-04 17:05 | 69.76973 | 18.97105 | 3767 ft | 222 kts | 9° |
| 2026-05-04 17:06 | 69.79699 | 18.92770 | 5138 ft | 252 kts | 295° |
| 2026-05-04 17:06 | 69.80154 | 18.88263 | 6008 ft | 255 kts | 280° |
| 2026-05-04 17:07 | 69.80553 | 18.78495 | 7856 ft | 257 kts | 276° |
| 2026-05-04 17:07 | 69.80662 | 18.75068 | 8454 ft | 260 kts | 271° |
| 2026-05-04 17:07 | 69.80003 | 18.68361 | 9604 ft | 265 kts | 237° |
| 2026-05-04 17:07 | 69.78734 | 18.64340 | 10100 ft | 281 kts | 213° |
| 2026-05-04 17:08 | 69.76906 | 18.62007 | 10505 ft | 299 kts | 198° |
| 2026-05-04 17:08 | 69.72670 | 18.58089 | 11264 ft | 333 kts | 197° |
| 2026-05-04 17:08 | 69.70445 | 18.56108 | 12028 ft | 336 kts | 197° |
| 2026-05-04 17:09 | 69.68204 | 18.54113 | 12796 ft | 339 kts | 197° |
| 2026-05-04 17:09 | 69.65951 | 18.52093 | 13560 ft | 340 kts | 197° |
| 2026-05-04 17:09 | 69.63691 | 18.50023 | 14282 ft | 342 kts | 199° |
| 2026-05-04 17:10 | 69.59802 | 18.42118 | 15416 ft | 347 kts | 221° |
| 2026-05-04 17:10 | 69.54372 | 18.28419 | 15510 ft | 350 kts | 221° |
| 2026-05-04 17:11 | 69.52547 | 18.23835 | 15510 ft | 350 kts | 221° |
| 2026-05-04 17:11 | 69.50716 | 18.19241 | 15506 ft | 350 kts | 220° |
| 2026-05-04 17:11 | 69.47063 | 18.10095 | 15507 ft | 350 kts | 220° |
| 2026-05-04 17:12 | 69.45231 | 18.05523 | 15507 ft | 350 kts | 220° |
| 2026-05-04 17:12 | 69.41567 | 17.96408 | 15507 ft | 350 kts | 220° |
| 2026-05-04 17:13 | 69.35260 | 17.86396 | 15509 ft | 349 kts | 200° |
| 2026-05-04 17:14 | 69.28499 | 17.78990 | 15515 ft | 349 kts | 207° |
| 2026-05-04 17:14 | 69.26410 | 17.75425 | 15514 ft | 351 kts | 212° |
| 2026-05-04 17:14 | 69.22273 | 17.68116 | 15512 ft | 351 kts | 212° |
| 2026-05-04 17:15 | 69.20205 | 17.64478 | 15511 ft | 351 kts | 211° |
| 2026-05-04 17:15 | 69.16060 | 17.57225 | 15516 ft | 351 kts | 211° |
| 2026-05-04 17:16 | 69.11935 | 17.50044 | 14852 ft | 348 kts | 211° |
| 2026-05-04 17:16 | 69.05799 | 17.39410 | 13194 ft | 344 kts | 212° |
| 2026-05-04 17:17 | 69.03765 | 17.35902 | 12601 ft | 342 kts | 212° |
| 2026-05-04 17:17 | 68.99103 | 17.27905 | 11339 ft | 336 kts | 212° |
| 2026-05-04 17:19 | 68.96759 | 17.23529 | 10802 ft | 327 kts | 221° |
| 2026-05-04 17:19 | 68.94056 | 17.13861 | 9994 ft | 313 kts | 238° |
| 2026-05-04 17:20 | 68.91785 | 17.03916 | 9606 ft | 293 kts | 238° |
| 2026-05-04 17:20 | 68.89645 | 16.94633 | 9168 ft | 282 kts | 237° |
| 2026-05-04 17:20 | 68.88583 | 16.90052 | 8789 ft | 283 kts | 237° |
| 2026-05-04 17:21 | 68.86490 | 16.81041 | 8038 ft | 274 kts | 237° |
| 2026-05-04 17:21 | 68.84464 | 16.72324 | 7313 ft | 262 kts | 237° |
| 2026-05-04 17:22 | 68.83447 | 16.68287 | 6968 ft | 256 kts | 227° |
| 2026-05-04 17:22 | 68.82045 | 16.65444 | 6811 ft | 247 kts | 205° |
| 2026-05-04 17:23 | 68.77071 | 16.64581 | 6114 ft | 241 kts | 178° |
| 2026-05-04 17:23 | 68.75394 | 16.64782 | 5771 ft | 241 kts | 178° |
| 2026-05-04 17:23 | 68.72121 | 16.65170 | 5122 ft | 229 kts | 178° |
| 2026-05-04 17:24 | 68.70558 | 16.65354 | 4821 ft | 222 kts | 179° |
| 2026-05-04 17:24 | 68.66131 | 16.65869 | 4029 ft | 203 kts | 179° |
| 2026-05-04 17:25 | 68.64771 | 16.66026 | 3943 ft | 189 kts | 179° |
| 2026-05-04 17:25 | 68.62158 | 16.66314 | 3196 ft | 183 kts | 180° |
| 2026-05-04 17:26 | 68.59730 | 16.66594 | 2562 ft | 166 kts | 180° |
| 2026-05-04 17:26 | 68.56585 | 16.66990 | 1740 ft | 139 kts | 178° |
| 2026-05-04 17:27 | 68.54686 | 16.67227 | 1187 ft | 135 kts | 180° |
| 2026-05-04 17:27 | 68.52826 | 16.67402 | 734 ft | 134 kts | 179° |
| 2026-05-04 17:28 | 68.50995 | 16.67616 | 276 ft | 130 kts | 179° |
| 2026-05-04 17:29 | 68.48794 | 16.67866 | 92 ft | 48 kts | 179° |
| 2026-05-04 17:29 | 68.48445 | 16.68154 | 94 ft | 10 kts | 81° |
| 2026-05-04 17:30 | 68.48655 | 16.68248 | 93 ft | 13 kts | 357° |
| 2026-05-04 17:31 | 68.48854 | 16.68225 | 94 ft | 12 kts | 359° |
| 2026-05-04 17:31 | 68.48834 | 16.68430 | 95 ft | 0 kts | 139° |